createdAt,value
2022-08-27T00:00:34.991Z,2.40
2022-08-27T00:02:09.377Z,2.97
2022-08-27T00:03:42.685Z,2.45
2022-08-27T00:05:18.084Z,2.97
2022-08-27T00:06:51.343Z,2.45
2022-08-27T00:08:25.948Z,2.47
2022-08-27T00:09:59.171Z,2.40
2022-08-27T00:11:32.582Z,2.60
2022-08-27T00:13:06.363Z,2.15
2022-08-27T00:14:40.180Z,2.35
2022-08-27T00:16:15.751Z,3.00
2022-08-27T00:17:49.410Z,2.22
2022-08-27T00:19:23.238Z,2.50
2022-08-27T00:20:56.532Z,2.50
2022-08-27T00:22:29.766Z,2.50
2022-08-27T00:24:04.799Z,2.92
2022-08-27T00:25:38.524Z,2.53
2022-08-27T00:27:11.740Z,2.30
2022-08-27T00:28:47.673Z,2.92
2022-08-27T00:30:23.619Z,2.72
2022-08-27T00:31:57.471Z,2.85
2022-08-27T00:33:30.892Z,2.42
2022-08-27T00:35:04.095Z,2.55
2022-08-27T00:36:37.328Z,2.55
2022-08-27T00:38:10.203Z,2.58
2022-08-27T00:39:44.964Z,2.22
2022-08-27T00:41:19.446Z,2.65
2022-08-27T00:42:52.797Z,2.45
2022-08-27T00:44:27.756Z,2.70
2022-08-27T00:46:16.847Z,2.60
2022-08-27T00:47:54.529Z,2.65
2022-08-27T00:49:31.342Z,2.90
2022-08-27T00:51:05.731Z,2.38
2022-08-27T00:52:46.718Z,2.17
2022-08-27T00:54:20.215Z,2.42
2022-08-27T00:55:59.976Z,2.78
2022-08-27T00:57:35.040Z,2.30
2022-08-27T00:59:08.190Z,2.40
2022-08-27T01:00:41.627Z,2.42
2022-08-27T01:02:20.411Z,2.63
2022-08-27T01:04:06.046Z,2.72
2022-08-27T01:05:40.482Z,2.72
2022-08-27T01:07:14.654Z,2.45
2022-08-27T01:08:52.416Z,2.67
2022-08-27T01:10:29.980Z,2.88
2022-08-27T01:12:05.580Z,2.25
2022-08-27T01:13:58.758Z,1.88
2022-08-27T01:15:33.957Z,2.30
2022-08-27T01:17:10.465Z,2.50
2022-08-27T01:18:44.581Z,2.30
2022-08-27T01:20:21.312Z,2.53
2022-08-27T01:22:01.203Z,2.65
2022-08-27T01:23:39.788Z,3.03
2022-08-27T01:25:16.986Z,2.35
2022-08-27T01:26:50.974Z,2.53
2022-08-27T01:28:35.864Z,3.00
2022-08-27T01:30:14.067Z,2.55
2022-08-27T01:31:48.359Z,2.80
2022-08-27T01:33:23.818Z,2.47
2022-08-27T01:34:57.951Z,2.92
2022-08-27T01:36:32.087Z,2.75
2022-08-27T01:38:06.150Z,2.28
2022-08-27T01:39:44.639Z,2.45
2022-08-27T01:41:20.710Z,2.13
2022-08-27T01:42:56.684Z,2.60
2022-08-27T01:44:28.877Z,2.78
2022-08-27T01:46:02.141Z,2.10
2022-08-27T01:47:36.846Z,2.58
2022-08-27T01:49:11.431Z,2.70
2022-08-27T01:50:44.469Z,2.42
2022-08-27T01:52:20.311Z,2.42
2022-08-27T01:53:54.257Z,2.38
2022-08-27T01:55:27.227Z,2.58
2022-08-27T01:57:01.957Z,2.40
2022-08-27T01:58:35.310Z,2.33
2022-08-27T02:00:12.612Z,3.00
2022-08-27T02:01:45.906Z,2.30
2022-08-27T02:03:19.413Z,3.25
2022-08-27T02:04:52.839Z,2.90
2022-08-27T02:06:26.288Z,2.55
2022-08-27T02:07:59.208Z,2.53
2022-08-27T02:09:33.295Z,2.47
2022-08-27T02:11:08.288Z,2.33
2022-08-27T02:12:43.269Z,2.72
2022-08-27T02:14:17.216Z,2.35
2022-08-27T02:15:50.694Z,3.42
2022-08-27T02:17:23.887Z,2.55
2022-08-27T02:18:57.483Z,2.25
2022-08-27T02:20:31.359Z,2.20
2022-08-27T02:22:04.670Z,2.70
2022-08-27T02:23:37.938Z,2.40
2022-08-27T02:25:14.101Z,2.13
2022-08-27T02:26:47.467Z,2.70
2022-08-27T02:28:22.450Z,2.88
2022-08-27T02:29:55.877Z,2.60
2022-08-27T02:31:29.595Z,2.50
2022-08-27T02:33:04.447Z,2.80
2022-08-27T02:34:38.195Z,2.17
2022-08-27T02:36:11.995Z,3.00
2022-08-27T02:37:47.151Z,2.15
2022-08-27T02:39:20.552Z,2.60
2022-08-27T02:40:54.064Z,2.50
2022-08-27T02:42:27.437Z,2.40
2022-08-27T02:44:02.796Z,2.55
2022-08-27T02:45:41.055Z,2.60
2022-08-27T02:47:14.428Z,2.58
2022-08-27T02:48:47.715Z,2.80
2022-08-27T02:50:22.191Z,2.60
2022-08-27T02:52:00.294Z,2.80
2022-08-27T02:53:34.653Z,3.00
2022-08-27T02:55:08.945Z,2.97
2022-08-27T02:56:42.761Z,2.35
2022-08-27T02:58:17.005Z,2.78
2022-08-27T02:59:52.719Z,2.70
2022-08-27T03:01:26.131Z,2.60
2022-08-27T03:02:59.916Z,2.22
2022-08-27T03:04:33.230Z,2.63
2022-08-27T03:06:06.678Z,2.40
2022-08-27T03:07:40.393Z,3.17
2022-08-27T03:09:14.562Z,2.50
2022-08-27T03:10:46.884Z,2.78
2022-08-27T03:12:20.255Z,2.42
2022-08-27T03:13:56.160Z,2.35
2022-08-27T03:15:31.295Z,2.58
2022-08-27T03:17:18.557Z,2.60
2022-08-27T03:18:51.828Z,2.47
2022-08-27T03:20:25.497Z,2.33
2022-08-27T03:21:59.456Z,2.67
2022-08-27T03:23:34.191Z,2.20
2022-08-27T03:25:08.469Z,2.67
2022-08-27T03:26:41.797Z,2.50
2022-08-27T03:28:30.504Z,2.50
2022-08-27T03:30:04.199Z,2.90
2022-08-27T03:31:38.969Z,2.38
2022-08-27T03:33:12.176Z,2.50
2022-08-27T03:34:45.845Z,2.70
2022-08-27T03:36:19.040Z,2.50
2022-08-27T03:37:51.686Z,2.47
2022-08-27T03:39:24.927Z,2.70
2022-08-27T03:40:58.863Z,2.60
2022-08-27T03:42:31.088Z,2.40
2022-08-27T03:44:04.665Z,2.50
2022-08-27T03:46:00.792Z,2.72
2022-08-27T03:47:33.369Z,2.38
2022-08-27T03:49:06.918Z,2.42
2022-08-27T03:50:41.651Z,2.58
2022-08-27T03:52:15.119Z,2.95
2022-08-27T03:53:49.244Z,2.58
2022-08-27T03:55:22.575Z,2.75
2022-08-27T03:56:54.855Z,2.70
2022-08-27T03:58:28.349Z,3.25
2022-08-27T04:00:01.599Z,3.05
2022-08-27T04:01:35.209Z,2.40
2022-08-27T04:03:09.919Z,2.50
2022-08-27T04:04:43.222Z,2.83
2022-08-27T04:06:16.814Z,2.63
2022-08-27T04:07:50.666Z,3.03
2022-08-27T04:09:23.951Z,2.40
2022-08-27T04:10:57.398Z,2.58
2022-08-27T04:12:31.317Z,2.67
2022-08-27T04:14:06.947Z,2.55
2022-08-27T04:15:58.041Z,2.20
2022-08-27T04:17:31.283Z,2.75
2022-08-27T04:19:06.315Z,3.20
2022-08-27T04:20:39.699Z,2.90
2022-08-27T04:22:13.082Z,2.22
2022-08-27T04:23:46.228Z,2.60
2022-08-27T04:25:19.992Z,2.70
2022-08-27T04:26:52.182Z,2.55
2022-08-27T04:28:25.537Z,2.33
2022-08-27T04:29:58.598Z,3.63
2022-08-27T04:31:32.620Z,2.83
2022-08-27T04:33:05.896Z,2.63
2022-08-27T04:34:41.143Z,2.17
2022-08-27T04:36:14.381Z,2.40
2022-08-27T04:37:47.910Z,2.55
2022-08-27T04:39:21.045Z,1.92
2022-08-27T04:41:11.580Z,2.38
2022-08-27T04:42:45.662Z,3.20
2022-08-27T04:44:18.343Z,2.75
2022-08-27T04:45:51.796Z,2.80
2022-08-27T04:47:25.024Z,2.53
2022-08-27T04:48:58.638Z,3.08
2022-08-27T04:50:33.747Z,2.85
2022-08-27T04:52:07.243Z,2.30
2022-08-27T04:53:40.486Z,2.88
2022-08-27T04:55:14.131Z,2.00
2022-08-27T04:56:47.672Z,2.28
2022-08-27T04:58:22.413Z,2.50
2022-08-27T04:59:57.046Z,2.10
2022-08-27T05:01:31.937Z,2.58
2022-08-27T05:03:05.900Z,2.90
2022-08-27T05:04:40.793Z,2.90
2022-08-27T05:06:14.816Z,3.03
2022-08-27T05:07:48.025Z,2.75
2022-08-27T05:09:21.902Z,2.85
2022-08-27T05:10:58.658Z,2.78
2022-08-27T05:12:31.875Z,2.60
2022-08-27T05:14:06.003Z,2.90
2022-08-27T05:15:39.644Z,2.85
2022-08-27T05:17:12.862Z,2.08
2022-08-27T05:18:48.306Z,2.95
2022-08-27T05:20:22.886Z,2.67
2022-08-27T05:21:58.300Z,2.63
2022-08-27T05:23:32.581Z,2.58
2022-08-27T05:25:11.369Z,2.63
2022-08-27T05:26:45.552Z,2.72
2022-08-27T05:28:21.830Z,3.05
2022-08-27T05:30:01.545Z,2.13
2022-08-27T05:31:35.331Z,2.22
2022-08-27T05:33:08.958Z,3.33
2022-08-27T05:34:43.343Z,3.25
2022-08-27T05:36:21.220Z,4.60
2022-08-27T05:37:55.728Z,5.63
2022-08-27T05:39:29.310Z,5.82
2022-08-27T05:41:08.656Z,6.45
2022-08-27T05:42:43.191Z,4.30
2022-08-27T05:44:41.051Z,4.80
2022-08-27T05:46:17.447Z,5.80
2022-08-27T05:47:50.895Z,6.25
2022-08-27T05:49:24.164Z,5.30
2022-08-27T05:50:56.701Z,5.32
2022-08-27T05:52:30.338Z,3.80
2022-08-27T05:54:09.023Z,3.55
2022-08-27T05:55:43.695Z,3.30
2022-08-27T05:57:16.932Z,3.90
2022-08-27T05:59:09.469Z,5.35
2022-08-27T06:01:02.224Z,5.25
2022-08-27T06:02:37.443Z,3.72
2022-08-27T06:04:11.130Z,3.45
2022-08-27T06:05:50.688Z,2.67
2022-08-27T06:07:24.020Z,2.92
2022-08-27T06:08:57.246Z,2.40
2022-08-27T06:10:32.374Z,2.53
2022-08-27T06:12:06.282Z,2.50
2022-08-27T06:13:39.676Z,1.90
2022-08-27T06:15:16.964Z,2.30
2022-08-27T06:16:49.758Z,2.28
2022-08-27T06:18:23.038Z,2.03
2022-08-27T06:19:56.424Z,2.45
2022-08-27T06:21:28.631Z,2.08
2022-08-27T06:23:02.419Z,2.33
2022-08-27T06:24:36.485Z,1.58
2022-08-27T06:26:13.753Z,1.60
2022-08-27T06:27:47.015Z,1.70
2022-08-27T06:29:20.674Z,1.85
2022-08-27T06:30:53.972Z,1.63
2022-08-27T06:32:27.211Z,1.65
2022-08-27T06:34:02.927Z,1.50
2022-08-27T06:35:41.059Z,1.80
2022-08-27T06:37:14.300Z,1.30
2022-08-27T06:38:49.471Z,1.77
2022-08-27T06:40:23.411Z,1.80
2022-08-27T06:41:58.770Z,2.22
2022-08-27T06:43:32.082Z,1.30
2022-08-27T06:45:06.177Z,1.67
2022-08-27T06:46:40.286Z,1.80
2022-08-27T06:48:14.104Z,1.88
2022-08-27T06:49:47.369Z,1.55
2022-08-27T06:51:24.530Z,1.55
2022-08-27T06:52:57.840Z,1.80
2022-08-27T06:54:31.342Z,2.08
2022-08-27T06:56:05.250Z,1.80
2022-08-27T06:57:39.827Z,1.58
2022-08-27T06:59:16.243Z,1.83
2022-08-27T07:00:51.092Z,1.50
2022-08-27T07:02:24.332Z,1.75
2022-08-27T07:03:58.598Z,1.75
2022-08-27T07:05:31.975Z,1.58
2022-08-27T07:07:06.107Z,1.83
2022-08-27T07:08:39.658Z,1.80
2022-08-27T07:10:13.122Z,1.65
2022-08-27T07:11:46.367Z,1.70
2022-08-27T07:13:21.513Z,1.70
2022-08-27T07:14:54.792Z,1.65
2022-08-27T07:16:29.391Z,2.15
2022-08-27T07:18:04.888Z,1.58
2022-08-27T07:19:40.927Z,1.67
2022-08-27T07:21:14.719Z,1.50
2022-08-27T07:22:49.191Z,1.90
2022-08-27T07:24:22.376Z,1.33
2022-08-27T07:25:55.992Z,1.60
2022-08-27T07:27:29.138Z,1.58
2022-08-27T07:29:03.994Z,1.73
2022-08-27T07:30:37.775Z,1.60
2022-08-27T07:32:11.511Z,1.50
2022-08-27T07:33:51.350Z,1.70
2022-08-27T07:35:25.490Z,1.42
2022-08-27T07:36:58.721Z,1.38
2022-08-27T07:38:32.272Z,1.25
2022-08-27T07:40:06.923Z,1.83
2022-08-27T07:41:53.973Z,1.40
2022-08-27T07:43:44.996Z,1.60
2022-08-27T07:45:19.848Z,1.73
2022-08-27T07:46:53.273Z,1.25
2022-08-27T07:48:27.996Z,1.73
2022-08-27T07:50:01.350Z,1.40
2022-08-27T07:51:37.528Z,1.83
2022-08-27T07:53:11.181Z,1.50
2022-08-27T07:54:44.586Z,1.45
2022-08-27T07:56:18.316Z,1.40
2022-08-27T07:57:52.696Z,1.38
2022-08-27T07:59:27.464Z,1.38
2022-08-27T08:01:02.230Z,1.20
2022-08-27T08:02:35.603Z,1.45
2022-08-27T08:04:10.109Z,1.60
2022-08-27T08:05:45.500Z,1.20
2022-08-27T08:07:18.834Z,1.45
2022-08-27T08:08:52.490Z,1.52
2022-08-27T08:10:26.144Z,1.50
2022-08-27T08:11:59.508Z,1.67
2022-08-27T08:13:32.693Z,1.40
2022-08-27T08:15:07.791Z,1.55
2022-08-27T08:16:42.688Z,1.27
2022-08-27T08:18:15.945Z,1.20
2022-08-27T08:20:15.504Z,1.83
2022-08-27T08:21:43.974Z,1.52
2022-08-27T08:23:17.369Z,1.80
2022-08-27T08:24:50.624Z,1.30
2022-08-27T08:26:24.263Z,1.48
2022-08-27T08:27:58.532Z,1.30
2022-08-27T08:29:33.568Z,1.40
2022-08-27T08:31:07.801Z,1.45
2022-08-27T08:32:43.427Z,1.55
2022-08-27T08:34:17.051Z,1.40
2022-08-27T08:35:51.636Z,1.52
2022-08-27T08:37:25.049Z,1.55
2022-08-27T08:38:59.025Z,1.55
2022-08-27T08:40:36.394Z,1.95
2022-08-27T08:42:24.800Z,1.55
2022-08-27T08:44:01.090Z,1.40
2022-08-27T08:45:42.911Z,1.27
2022-08-27T08:47:20.086Z,1.63
2022-08-27T08:48:59.995Z,1.08
2022-08-27T08:50:39.308Z,1.40
2022-08-27T08:52:31.114Z,1.30
2022-08-27T08:54:09.574Z,1.40
2022-08-27T08:55:48.323Z,2.35
2022-08-27T08:57:28.064Z,1.17
2022-08-27T08:59:04.869Z,1.20
2022-08-27T09:00:39.962Z,1.45
2022-08-27T09:02:18.697Z,1.63
2022-08-27T09:03:57.497Z,1.60
2022-08-27T09:05:31.162Z,1.23
2022-08-27T09:07:09.147Z,1.58
2022-08-27T09:08:44.118Z,1.38
2022-08-27T09:10:25.538Z,1.85
2022-08-27T09:12:02.324Z,2.28
2022-08-27T09:13:41.419Z,1.88
2022-08-27T09:15:18.262Z,1.33
2022-08-27T09:16:56.256Z,1.52
2022-08-27T09:18:30.276Z,1.38
2022-08-27T09:20:06.789Z,1.60
2022-08-27T09:21:50.038Z,1.83
2022-08-27T09:23:30.356Z,1.80
2022-08-27T09:25:12.146Z,1.50
2022-08-27T09:26:46.592Z,1.77
2022-08-27T09:28:41.283Z,1.17
2022-08-27T09:30:21.953Z,1.75
2022-08-27T09:31:58.217Z,1.70
2022-08-27T09:33:44.461Z,1.70
2022-08-27T09:35:29.247Z,1.60
2022-08-27T09:37:07.549Z,1.40
2022-08-27T09:38:52.693Z,1.55
2022-08-27T09:40:38.428Z,1.60
2022-08-27T09:42:26.978Z,1.40
2022-08-27T09:44:02.205Z,1.50
2022-08-27T09:45:36.565Z,1.35
2022-08-27T09:47:16.239Z,1.52
2022-08-27T09:48:49.612Z,1.30
2022-08-27T09:50:39.551Z,1.40
2022-08-27T09:52:32.269Z,1.58
2022-08-27T09:54:12.339Z,1.42
2022-08-27T09:55:49.166Z,2.22
2022-08-27T09:57:34.436Z,1.33
2022-08-27T09:59:10.292Z,1.52
2022-08-27T10:00:43.742Z,1.85
2022-08-27T10:02:20.079Z,1.75
2022-08-27T10:04:05.732Z,1.35
2022-08-27T10:05:50.695Z,1.60
2022-08-27T10:07:43.555Z,1.40
2022-08-27T10:09:21.782Z,1.70
2022-08-27T10:10:58.534Z,2.03
2022-08-27T10:12:36.988Z,1.65
2022-08-27T10:14:16.287Z,1.77
2022-08-27T10:16:07.561Z,1.58
2022-08-27T10:17:51.199Z,1.60
2022-08-27T10:19:37.100Z,1.77
2022-08-27T10:21:18.799Z,1.50
2022-08-27T10:23:03.208Z,1.67
2022-08-27T10:24:46.790Z,1.55
2022-08-27T10:26:30.787Z,1.80
2022-08-27T10:28:21.003Z,2.35
2022-08-27T10:30:03.421Z,1.60
2022-08-27T10:31:42.129Z,2.03
2022-08-27T10:33:23.881Z,1.55
2022-08-27T10:35:09.427Z,1.65
2022-08-27T10:36:54.962Z,1.45
2022-08-27T10:38:35.358Z,1.52
2022-08-27T10:40:16.145Z,1.77
2022-08-27T10:41:56.060Z,1.88
2022-08-27T10:44:06.840Z,2.70
2022-08-27T10:45:48.916Z,2.15
2022-08-27T10:47:37.587Z,1.60
2022-08-27T10:49:21.410Z,2.00
2022-08-27T10:51:01.982Z,1.73
2022-08-27T10:52:43.305Z,1.60
2022-08-27T10:54:26.903Z,1.42
2022-08-27T10:56:11.668Z,2.08
2022-08-27T10:58:15.550Z,1.30
2022-08-27T10:59:57.870Z,1.98
2022-08-27T11:01:42.135Z,1.25
2022-08-27T11:03:21.417Z,1.80
2022-08-27T11:05:00.889Z,1.55
2022-08-27T11:06:40.175Z,1.73
2022-08-27T11:08:23.062Z,1.38
2022-08-27T11:09:59.792Z,2.42
2022-08-27T11:13:38.671Z,1.80
2022-08-27T11:15:16.962Z,1.70
2022-08-27T11:16:56.470Z,1.75
2022-08-27T11:18:38.603Z,2.17
2022-08-27T11:20:16.538Z,2.05
2022-08-27T11:22:00.218Z,2.88
2022-08-27T11:23:49.579Z,1.60
2022-08-27T11:25:42.850Z,2.20
2022-08-27T11:27:23.155Z,1.63
2022-08-27T11:29:01.991Z,1.80
2022-08-27T11:30:45.417Z,1.75
2022-08-27T11:32:30.661Z,1.15
2022-08-27T11:34:10.823Z,2.10
2022-08-27T11:36:03.125Z,2.30
2022-08-27T11:37:54.681Z,1.75
2022-08-27T11:39:51.097Z,1.30
2022-08-27T11:41:55.423Z,1.55
2022-08-27T11:43:34.247Z,2.58
2022-08-27T11:45:11.288Z,2.00
2022-08-27T11:46:47.144Z,2.03
2022-08-27T11:48:25.328Z,1.77
2022-08-27T11:50:01.275Z,1.80
2022-08-27T11:51:36.808Z,2.03
2022-08-27T11:53:10.131Z,1.70
2022-08-27T11:54:50.267Z,1.73
2022-08-27T11:56:38.945Z,2.08
2022-08-27T11:58:27.130Z,2.67
2022-08-27T12:00:12.889Z,2.45
2022-08-27T12:01:46.401Z,1.88
2022-08-27T12:03:28.358Z,1.90
2022-08-27T12:05:11.083Z,1.95
2022-08-27T12:06:51.328Z,2.08
2022-08-27T12:08:31.759Z,2.08
2022-08-27T12:10:22.192Z,1.38
2022-08-27T12:12:04.685Z,1.88
2022-08-27T12:13:43.394Z,1.60
2022-08-27T12:15:22.361Z,1.55
2022-08-27T12:17:11.914Z,1.77
2022-08-27T12:18:57.679Z,1.55
2022-08-27T12:20:44.568Z,2.03
2022-08-27T12:22:53.512Z,1.33
2022-08-27T12:24:49.940Z,1.80
2022-08-27T12:26:33.512Z,1.38
2022-08-27T12:28:09.470Z,1.30
2022-08-27T12:29:49.990Z,1.40
2022-08-27T12:31:25.132Z,1.40
2022-08-27T12:33:00.746Z,1.80
2022-08-27T12:34:44.063Z,1.25
2022-08-27T12:36:27.566Z,1.90
2022-08-27T12:38:13.586Z,1.30
2022-08-27T12:39:49.840Z,1.55
2022-08-27T12:41:32.061Z,1.70
2022-08-27T12:43:07.890Z,2.30
2022-08-27T12:44:41.268Z,1.77
2022-08-27T12:46:17.340Z,1.50
2022-08-27T12:47:51.421Z,1.77
2022-08-27T12:49:38.199Z,1.52
2022-08-27T12:51:17.478Z,1.73
2022-08-27T12:53:19.751Z,1.63
2022-08-27T12:55:05.015Z,1.70
2022-08-27T12:56:56.627Z,1.33
2022-08-27T12:58:45.072Z,2.20
2022-08-27T13:00:22.095Z,1.52
2022-08-27T13:02:15.335Z,2.15
2022-08-27T13:03:51.985Z,1.42
2022-08-27T13:05:26.421Z,1.50
2022-08-27T13:06:59.630Z,2.15
2022-08-27T13:08:35.712Z,2.00
2022-08-27T13:10:15.627Z,1.67
2022-08-27T13:11:55.720Z,1.58
2022-08-27T13:13:29.030Z,1.55
2022-08-27T13:15:08.110Z,1.65
2022-08-27T13:16:48.835Z,1.40
2022-08-27T13:18:22.786Z,2.25
2022-08-27T13:20:00.351Z,1.80
2022-08-27T13:21:33.894Z,2.10
2022-08-27T13:23:17.273Z,2.30
2022-08-27T13:24:57.253Z,2.10
2022-08-27T13:26:34.113Z,1.83
2022-08-27T13:28:14.602Z,1.98
2022-08-27T13:29:48.242Z,2.08
2022-08-27T13:31:23.936Z,1.45
2022-08-27T13:32:58.787Z,1.73
2022-08-27T13:34:37.312Z,1.77
2022-08-27T13:36:11.761Z,1.70
2022-08-27T13:37:49.474Z,1.67
2022-08-27T13:39:23.105Z,1.65
2022-08-27T13:40:59.435Z,1.55
2022-08-27T13:42:33.850Z,1.35
2022-08-27T13:44:11.906Z,2.05
2022-08-27T13:45:51.620Z,2.08
2022-08-27T13:47:26.854Z,1.35
2022-08-27T13:49:01.719Z,2.05
2022-08-27T13:50:36.851Z,1.50
2022-08-27T13:52:25.136Z,1.73
2022-08-27T13:54:13.707Z,1.58
2022-08-27T13:55:48.004Z,2.28
2022-08-27T13:57:26.086Z,1.77
2022-08-27T13:59:12.447Z,1.80
2022-08-27T14:00:46.225Z,1.95
2022-08-27T14:02:27.868Z,1.80
2022-08-27T14:04:02.845Z,1.83
2022-08-27T14:05:37.107Z,1.77
2022-08-27T14:07:14.283Z,2.45
2022-08-27T14:08:47.520Z,1.38
2022-08-27T14:10:34.120Z,1.70
2022-08-27T14:12:10.865Z,3.50
2022-08-27T14:13:47.452Z,1.80
2022-08-27T14:15:34.702Z,1.85
2022-08-27T14:17:22.117Z,2.38
2022-08-27T14:18:59.486Z,1.35
2022-08-27T14:20:33.155Z,2.40
2022-08-27T14:22:06.649Z,2.03
2022-08-27T14:23:40.233Z,2.05
2022-08-27T14:25:15.158Z,1.88
2022-08-27T14:26:50.824Z,1.83
2022-08-27T14:28:24.155Z,1.27
2022-08-27T14:29:57.799Z,1.80
2022-08-27T14:31:32.579Z,1.70
2022-08-27T14:33:05.902Z,2.28
2022-08-27T14:34:39.302Z,1.80
2022-08-27T14:36:13.586Z,2.13
2022-08-27T14:37:47.503Z,1.65
2022-08-27T14:39:20.682Z,1.65
2022-08-27T14:41:01.732Z,1.60
2022-08-27T14:42:35.551Z,1.67
2022-08-27T14:44:09.913Z,2.00
2022-08-27T14:45:45.287Z,2.95
2022-08-27T14:47:20.816Z,1.80
2022-08-27T14:48:56.013Z,2.38
2022-08-27T14:50:29.259Z,1.63
2022-08-27T14:52:03.282Z,1.63
2022-08-27T14:53:38.269Z,1.60
2022-08-27T14:55:14.492Z,2.58
2022-08-27T14:56:47.738Z,3.05
2022-08-27T14:58:54.125Z,1.52
2022-08-27T15:00:27.974Z,1.75
2022-08-27T15:02:02.585Z,1.70
2022-08-27T15:03:39.905Z,1.50
2022-08-27T15:05:13.270Z,1.67
2022-08-27T15:06:46.614Z,1.63
2022-08-27T15:08:25.715Z,2.38
2022-08-27T15:10:00.998Z,1.42
2022-08-27T15:11:36.770Z,2.15
2022-08-27T15:13:11.541Z,1.75
2022-08-27T15:14:44.995Z,1.83
2022-08-27T15:16:27.072Z,1.98
2022-08-27T15:18:00.309Z,1.65
2022-08-27T15:19:35.509Z,1.45
2022-08-27T15:21:08.881Z,1.73
2022-08-27T15:22:44.374Z,2.63
2022-08-27T15:24:20.520Z,1.90
2022-08-27T15:25:54.105Z,1.88
2022-08-27T15:27:37.942Z,1.75
2022-08-27T15:29:12.093Z,2.30
2022-08-27T15:30:45.536Z,1.50
2022-08-27T15:32:27.851Z,2.00
2022-08-27T15:34:02.209Z,1.85
2022-08-27T15:35:36.852Z,1.73
2022-08-27T15:37:10.362Z,1.60
2022-08-27T15:38:43.798Z,1.88
2022-08-27T15:40:19.716Z,1.70
2022-08-27T15:42:08.610Z,1.88
2022-08-27T15:43:42.091Z,1.63
2022-08-27T15:45:16.266Z,2.33
2022-08-27T15:46:51.000Z,2.10
2022-08-27T15:48:24.544Z,1.75
2022-08-27T15:49:58.163Z,2.10
2022-08-27T15:51:36.102Z,2.70
2022-08-27T15:53:10.675Z,2.38
2022-08-27T15:54:44.658Z,2.90
2022-08-27T15:56:19.819Z,1.90
2022-08-27T15:57:55.674Z,1.73
2022-08-27T15:59:29.322Z,2.08
2022-08-27T16:01:07.771Z,1.70
2022-08-27T16:02:42.822Z,2.42
2022-08-27T16:04:17.666Z,1.98
2022-08-27T16:05:51.030Z,2.33
2022-08-27T16:07:26.087Z,1.35
2022-08-27T16:08:59.567Z,1.90
2022-08-27T16:10:33.518Z,3.30
2022-08-27T16:12:06.459Z,2.28
2022-08-27T16:13:39.701Z,3.38
2022-08-27T16:15:14.364Z,2.40
2022-08-27T16:16:50.375Z,2.60
2022-08-27T16:18:27.841Z,2.47
2022-08-27T16:20:01.634Z,3.83
2022-08-27T16:21:36.900Z,3.03
2022-08-27T16:23:11.587Z,3.10
2022-08-27T16:24:45.044Z,2.90
2022-08-27T16:26:18.501Z,2.70
2022-08-27T16:27:53.514Z,2.97
2022-08-27T16:29:26.884Z,3.90
2022-08-27T16:31:00.323Z,3.22
2022-08-27T16:32:33.794Z,2.80
2022-08-27T16:34:15.561Z,2.30
2022-08-27T16:35:49.195Z,2.40
2022-08-27T16:37:22.798Z,2.30
2022-08-27T16:38:57.827Z,2.28
2022-08-27T16:40:30.482Z,2.33
2022-08-27T16:42:04.310Z,1.92
2022-08-27T16:43:37.533Z,2.13
2022-08-27T16:45:14.195Z,2.20
2022-08-27T16:46:47.820Z,2.03
2022-08-27T16:48:39.450Z,2.70
2022-08-27T16:50:29.813Z,2.00
2022-08-27T16:52:04.399Z,2.30
2022-08-27T16:53:39.956Z,2.10
2022-08-27T16:55:15.062Z,2.22
2022-08-27T16:56:48.530Z,2.83
2022-08-27T16:58:24.688Z,2.15
2022-08-27T16:59:58.057Z,2.50
2022-08-27T17:01:31.689Z,2.50
2022-08-27T17:03:05.721Z,2.33
2022-08-27T17:04:42.359Z,2.33
2022-08-27T17:06:17.921Z,2.50
2022-08-27T17:07:51.330Z,2.10
2022-08-27T17:09:24.546Z,3.13
2022-08-27T17:10:59.281Z,2.20
2022-08-27T17:12:32.875Z,1.92
2022-08-27T17:14:06.225Z,2.40
2022-08-27T17:15:39.721Z,2.10
2022-08-27T17:17:13.348Z,2.40
2022-08-27T17:18:47.545Z,2.17
2022-08-27T17:20:20.745Z,2.83
2022-08-27T17:21:55.068Z,2.17
2022-08-27T17:23:34.052Z,3.05
2022-08-27T17:25:08.491Z,1.90
2022-08-27T17:26:43.134Z,2.65
2022-08-27T17:28:16.472Z,2.70
2022-08-27T17:29:50.069Z,2.97
2022-08-27T17:31:28.383Z,2.20
2022-08-27T17:33:01.865Z,2.40
2022-08-27T17:34:35.695Z,2.10
2022-08-27T17:36:10.596Z,2.03
2022-08-27T17:37:44.607Z,1.98
2022-08-27T17:39:18.002Z,2.33
2022-08-27T17:40:52.714Z,2.33
2022-08-27T17:42:28.218Z,2.80
2022-08-27T17:44:04.377Z,2.25
2022-08-27T17:45:37.687Z,2.33
2022-08-27T17:47:11.178Z,2.67
2022-08-27T17:48:44.632Z,2.03
2022-08-27T17:50:18.373Z,2.30
2022-08-27T17:51:56.357Z,2.80
2022-08-27T17:53:29.576Z,2.58
2022-08-27T17:55:02.942Z,3.13
2022-08-27T17:56:39.447Z,2.30
2022-08-27T17:58:14.064Z,2.30
2022-08-27T17:59:48.141Z,1.83
2022-08-27T18:01:24.315Z,1.98
2022-08-27T18:03:02.705Z,2.60
2022-08-27T18:04:36.022Z,2.55
2022-08-27T18:06:09.379Z,2.63
2022-08-27T18:07:43.134Z,2.53
2022-08-27T18:09:16.672Z,2.47
2022-08-27T18:10:50.022Z,2.95
2022-08-27T18:12:27.103Z,2.67
2022-08-27T18:14:05.029Z,2.83
2022-08-27T18:15:41.041Z,2.63
2022-08-27T18:17:14.372Z,2.33
2022-08-27T18:18:48.471Z,2.25
2022-08-27T18:20:23.365Z,2.92
2022-08-27T18:21:56.942Z,1.83
2022-08-27T18:23:30.183Z,2.60
2022-08-27T18:25:02.444Z,2.30
2022-08-27T18:26:36.142Z,2.63
2022-08-27T18:28:12.137Z,2.58
2022-08-27T18:29:46.792Z,2.00
2022-08-27T18:31:27.491Z,2.90
2022-08-27T18:33:02.114Z,3.17
2022-08-27T18:34:35.490Z,2.05
2022-08-27T18:36:15.036Z,2.15
2022-08-27T18:37:48.941Z,3.00
2022-08-27T18:39:22.291Z,2.90
2022-08-27T18:41:00.579Z,2.60
2022-08-27T18:42:38.006Z,2.72
2022-08-27T18:44:17.673Z,2.65
2022-08-27T18:45:52.849Z,3.33
2022-08-27T18:47:26.693Z,2.55
2022-08-27T18:48:59.814Z,2.60
2022-08-27T18:50:34.474Z,3.95
2022-08-27T18:52:09.032Z,2.95
2022-08-27T18:53:45.093Z,2.90
2022-08-27T18:55:20.871Z,2.08
2022-08-27T18:56:54.677Z,3.05
2022-08-27T18:58:29.135Z,2.50
2022-08-27T19:00:02.726Z,3.40
2022-08-27T19:01:37.531Z,2.17
2022-08-27T19:03:12.661Z,2.80
2022-08-27T19:04:46.172Z,3.10
2022-08-27T19:06:20.554Z,2.42
2022-08-27T19:07:53.796Z,2.63
2022-08-27T19:09:27.363Z,2.97
2022-08-27T19:11:01.140Z,3.10
2022-08-27T19:12:34.517Z,2.90
2022-08-27T19:14:10.406Z,3.05
2022-08-27T19:15:50.221Z,2.55
2022-08-27T19:17:28.025Z,2.83
2022-08-27T19:19:01.493Z,2.60
2022-08-27T19:20:34.648Z,2.40
2022-08-27T19:22:08.131Z,2.45
2022-08-27T19:23:41.639Z,2.72
2022-08-27T19:25:16.195Z,2.40
2022-08-27T19:26:50.484Z,2.83
2022-08-27T19:28:26.999Z,3.15
2022-08-27T19:30:00.310Z,3.10
2022-08-27T19:31:36.522Z,2.90
2022-08-27T19:33:11.555Z,2.90
2022-08-27T19:34:44.810Z,2.25
2022-08-27T19:36:19.260Z,2.80
2022-08-27T19:37:54.232Z,3.05
2022-08-27T19:39:27.724Z,3.03
2022-08-27T19:41:01.907Z,2.97
2022-08-27T19:42:35.309Z,2.88
2022-08-27T19:44:08.981Z,2.40
2022-08-27T19:45:42.645Z,2.47
2022-08-27T19:47:16.947Z,2.40
2022-08-27T19:48:58.158Z,2.72
2022-08-27T19:50:31.647Z,2.40
2022-08-27T19:52:08.322Z,2.30
2022-08-27T19:53:43.511Z,2.70
2022-08-27T19:55:16.892Z,2.33
2022-08-27T19:56:50.269Z,2.00
2022-08-27T19:58:23.538Z,2.78
2022-08-27T19:59:56.734Z,2.63
2022-08-27T20:01:30.107Z,2.33
2022-08-27T20:03:03.465Z,3.15
2022-08-27T20:04:56.079Z,2.38
2022-08-27T20:06:34.722Z,3.08
2022-08-27T20:08:08.259Z,2.67
2022-08-27T20:09:42.463Z,3.05
2022-08-27T20:11:15.691Z,2.72
2022-08-27T20:12:49.042Z,2.40
2022-08-27T20:14:22.660Z,2.65
2022-08-27T20:15:55.836Z,3.28
2022-08-27T20:17:29.976Z,2.45
2022-08-27T20:19:02.757Z,3.08
2022-08-27T20:20:37.604Z,2.85
2022-08-27T20:22:11.361Z,3.13
2022-08-27T20:23:44.622Z,2.70
2022-08-27T20:25:18.204Z,1.92
2022-08-27T20:26:52.227Z,2.75
2022-08-27T20:28:41.197Z,2.75
2022-08-27T20:30:15.949Z,2.53
2022-08-27T20:31:49.862Z,2.92
2022-08-27T20:33:23.195Z,2.97
2022-08-27T20:34:56.458Z,2.88
2022-08-27T20:36:33.139Z,2.85
2022-08-27T20:38:07.638Z,2.40
2022-08-27T20:39:41.293Z,2.75
2022-08-27T20:41:14.486Z,2.25
2022-08-27T20:42:47.835Z,2.65
2022-08-27T20:44:21.222Z,3.42
2022-08-27T20:45:55.182Z,2.95
2022-08-27T20:47:29.272Z,2.45
2022-08-27T20:49:02.486Z,2.55
2022-08-27T20:50:35.810Z,3.50
2022-08-27T20:52:11.799Z,2.55
2022-08-27T20:53:45.283Z,2.53
2022-08-27T20:55:19.353Z,3.28
2022-08-27T20:56:53.245Z,3.03
2022-08-27T20:58:44.743Z,3.30
2022-08-27T21:00:20.189Z,2.30
2022-08-27T21:01:53.541Z,3.00
2022-08-27T21:03:27.213Z,3.00
2022-08-27T21:05:07.908Z,2.50
2022-08-27T21:06:41.215Z,3.20
2022-08-27T21:08:16.864Z,2.33
2022-08-27T21:09:56.272Z,2.58
2022-08-27T21:11:30.577Z,2.58
2022-08-27T21:13:07.288Z,2.97
2022-08-27T21:14:42.450Z,2.78
2022-08-27T21:16:16.068Z,2.72
2022-08-27T21:17:49.523Z,2.40
2022-08-27T21:19:22.809Z,2.90
2022-08-27T21:20:56.154Z,2.35
2022-08-27T21:22:29.772Z,2.80
2022-08-27T21:24:04.571Z,2.75
2022-08-27T21:25:37.877Z,2.53
2022-08-27T21:27:11.310Z,2.28
2022-08-27T21:28:45.084Z,2.20